Aérodrome :
LOGIN :

S'inscrire | Disclaimer

   EN    FR    IT 

 










Légende :    VFR   VFR Marginal   IFR   IFR Intensif   IFR Très Intensif
Visi : 
Plafond : 
>= 8 km
>= 3000ft
5 à 8 km
1000 à 3000 ft
1500m à 5 km
500 à 1000 ft
800 à 1500m
200 à 500 ft
< 800m
< 200 ft
Symboles :   Orages  Brouillard  Fortes neiges  Fortes précipitations  Vent > 20 kt
SIGMETs :   Divers  Orages  Givrage  Turbulence  Onde Orograph.  Cendres Volcan.







- Altitude de l'aérodrome : 174 ft
- Code IATA : RYG


ENRY - Moss , Rygge

DERNIER METAR :
  • 221320Z 17016KT 9999 RA FEW012 SCT015 BKN020 15/13 Q1019 TEMPO 18016G26KT 4000 SHRA BKN012 SCT020CB

METARs EXPIRÉS :
  • 221250Z 18017G28KT 9999 -SHRA FEW011 SCT015 BKN020 16/14 Q1019 TEMPO 18018KT SHRA BKN012 SCT020CB
  • 221220Z 18017KT 9999 SHRA FEW010 SCT015 16/14 Q1019 TEMPO 18020G30KT SHRA BKN012 SCT020CB
  • 221150Z 18018KT 9999 RA SCT010 BKN013 16/14 Q1019 TEMPO 19018G28KT SHRA BKN008 SCT020CB
  • 221120Z 18016KT 9999 RA FEW010 SCT016 16/14 Q1020 TEMPO 19018G28KT SHRA BKN012 SCT020CB
  • 221050Z 18016KT 6000 RA SCT010 BKN012 BKN026 16/14 Q1020 TEMPO 19018G28KT SHRA BKN012 SCT020CB

TAF TAF ENRY
Valide du 22 à 12h jusqu'au 23 à 12h UTC


2212/2312 20018KT 9999 RA BKN018
TEMPO 2212/2218 20020G32KT 4000 SHRA BKN012 SCT020CB
BECMG 2217/2219 NSW SCT020
TEMPO 2304/2310 SHRA BKN008 FEW015CB
Pas de NOTAMs connus pour ce terrain.



MET'MAP, la Météo Aéronautique d'un coup d'oeil ! - Copyright ORBIFLY Décembre 2007 - Disclaimer

ORBIFLY MET'MAP TEAM :

Programmation & Développement : Alexandra Zaïnal
Conception & Développement : Baudouin d'Aumeries
Co-Programmation & Développement : Marc-Olivier Méhu
Soutien technique & logistique : Manuel Goepfert

Contact : metmap@orbifly.com




SOURCES & CREDITS :

   NOAA